Marshall Army Air Field
KFRI : now visible

Airfield :











YOU CAN JOIN US ON...

 
LOGIN :

Register | Disclaimer

   EN    FR    IT 

 









Legend :    VFR   Marginal VFR   IFR   Intensive IFR   Very Intensive IFR
Visi :
Ceiling :
>= 8 km
>= 3000ft
5 to 8 km
1000 to 3000 ft
1500m to 5 km
500 to 1000 ft
800 to 1500m
200 to 500 ft
< 800m
< 200 ft
Symbols :   Thunderstorms  Fog  Heavy snow  Heavy precipitations  Wind > 20 kt






- Airport Elevation : 1065 ft


KFRI - Marshall Army Air Field

CURRENT METAR :
  • 281556Z AUTO 22025G29KT 10SM CLR 18/06 A2942 RMK AO2 PK WND 22032/33 SLP958 T01820061

EXPIRED METARs :
  • 281456Z AUTO 21018G25KT 10SM CLR 18/10 A2943 RMK AO2 SLP961 T01750104 57024
  • 281426Z AUTO 23007KT 9SM FEW003 SCT013 15/15 A2944 RMK AO2 SLP966
  • 281411Z AUTO 17004KT 6SM BR SCT003 BKN013 14/14 A2944 RMK AO2 CIG 003V013 SLP966

TAF AMD TAF KFRI
Valid from the 28 at 01:00 until the 29 at 03:00 UTC


280140Z 2801/2903 09010KT 8000 BR OVC010 510042 QNH2962INS
BECMG 2803/2804 19010G15KT 6000 -SHRA BKN003 BKN020 510022 QNH2947INS
TEMPO 2806/2809 VRB20G35KT 4800 TSRAGR BKN003 BKN015CB OVC060
BECMG 2812/2813 18010G15KT 6000 -SHRA OVC002 510022 QNH2944INS
BECMG 2813/2814 19010KT 6000 BR BKN002 BKN018 520022 QNH2940INS
BECMG 2815/2816 20010G20KT 9999 NSW SCT018 520053 QNH2937INS
BECMG 2816/2817 24025G35KT 9999 SKC 520023 QNH2938INS
BECMG 2818/2819 27030G40KT 9999 SCT050 BKN065 530024 QNH2934INS
BECMG 2900/2901 30030G40KT 9999 BKN017 BKN025 520033 QNH2948INS TX20/2820Z TN10/2812Z LAST NO AMDS AFT 2802 NEXT 3005



MET'MAP, your aeronautical weather chart ! - Copyright ORBIFLY December 2007 - Disclaimer

ORBIFLY MET'MAP TEAM :

Programming & Development : Alexandra Zaïnal
Concept & original design : Baudouin d'Aumeries
Assistance for programming : Marc-Olivier Méhu
Technical & hardware support : Manuel Goepfert

Contact : metmap@orbifly.com




SOURCES & CREDITS :

   NOAA       Earth
Advisory